createdAt,value
2017-10-17T00:00:39.888Z,15.32
2017-10-17T00:01:42.701Z,26.15
2017-10-17T00:02:46.019Z,19.85
2017-10-17T00:03:48.625Z,18.95
2017-10-17T00:04:51.138Z,21.75
2017-10-17T00:05:54.693Z,25.55
2017-10-17T00:06:57.207Z,22.00
2017-10-17T00:07:59.979Z,16.23
2017-10-17T00:09:02.472Z,19.27
2017-10-17T00:10:06.212Z,20.60
2017-10-17T00:11:09.569Z,20.40
2017-10-17T00:12:12.235Z,19.40
2017-10-17T00:13:14.728Z,19.33
2017-10-17T00:14:18.084Z,22.27
2017-10-17T00:15:20.608Z,17.12
2017-10-17T00:16:23.152Z,20.35
2017-10-17T00:17:26.401Z,19.25
2017-10-17T00:18:29.100Z,24.90
2017-10-17T00:19:31.697Z,18.42
2017-10-17T00:20:34.468Z,19.75
2017-10-17T00:21:37.660Z,23.30
2017-10-17T00:22:40.378Z,15.57
2017-10-17T00:23:42.869Z,19.75
2017-10-17T00:24:49.148Z,17.37
2017-10-17T00:25:51.681Z,18.27
2017-10-17T00:26:55.093Z,17.70
2017-10-17T00:27:57.655Z,18.67
2017-10-17T00:29:00.592Z,17.65
2017-10-17T00:30:03.100Z,15.80
2017-10-17T00:31:05.754Z,18.85
2017-10-17T00:32:09.054Z,21.75
2017-10-17T00:33:15.463Z,21.40
2017-10-17T00:34:17.966Z,22.83
2017-10-17T00:35:28.179Z,18.12
2017-10-17T00:36:30.705Z,20.30
2017-10-17T00:37:33.461Z,17.17
2017-10-17T00:38:38.974Z,19.90
2017-10-17T00:39:42.498Z,22.33
2017-10-17T00:40:44.985Z,20.70
2017-10-17T00:41:47.618Z,19.30
2017-10-17T00:42:50.129Z,18.40
2017-10-17T00:43:52.638Z,18.67
2017-10-17T00:44:55.150Z,15.75
2017-10-17T00:46:18.657Z,28.52
2017-10-17T00:47:21.909Z,19.92
2017-10-17T00:48:24.733Z,17.67
2017-10-17T00:49:27.251Z,24.37
2017-10-17T00:50:34.296Z,19.70
2017-10-17T00:51:36.777Z,21.48
2017-10-17T00:52:46.674Z,19.60
2017-10-17T00:53:49.194Z,24.77
2017-10-17T00:54:51.735Z,17.67
2017-10-17T00:55:54.229Z,16.70
2017-10-17T00:56:56.813Z,18.58
2017-10-17T00:58:00.178Z,19.20
2017-10-17T00:59:02.755Z,22.58
2017-10-17T01:00:05.280Z,24.85
2017-10-17T01:01:08.131Z,18.80
2017-10-17T01:02:10.695Z,19.73
2017-10-17T01:03:13.433Z,19.58
2017-10-17T01:04:16.036Z,15.57
2017-10-17T01:05:18.528Z,24.83
2017-10-17T01:06:21.707Z,17.60
2017-10-17T01:07:24.215Z,18.98
2017-10-17T01:08:27.709Z,21.42
2017-10-17T01:09:31.030Z,21.02
2017-10-17T01:10:33.798Z,17.35
2017-10-17T01:11:36.291Z,20.17
2017-10-17T01:12:39.026Z,19.37
2017-10-17T01:13:41.514Z,17.58
2017-10-17T01:14:44.933Z,23.25
2017-10-17T01:15:47.419Z,23.98
2017-10-17T01:16:50.936Z,17.62
2017-10-17T01:17:53.447Z,21.20
2017-10-17T01:18:56.336Z,19.20
2017-10-17T01:20:06.829Z,23.52
2017-10-17T01:21:27.108Z,20.58
2017-10-17T01:22:29.598Z,19.05
2017-10-17T01:25:14.111Z,18.02
2017-10-17T01:26:19.484Z,27.30
2017-10-17T01:27:22.134Z,21.80
2017-10-17T01:28:24.701Z,23.60
2017-10-17T01:29:30.196Z,18.17
2017-10-17T01:30:32.975Z,18.87
2017-10-17T01:31:35.651Z,18.25
2017-10-17T01:32:39.215Z,15.30
2017-10-17T01:33:49.515Z,18.17
2017-10-17T01:34:52.916Z,18.25
2017-10-17T01:35:55.565Z,28.27
2017-10-17T01:36:58.957Z,17.23
2017-10-17T01:38:02.952Z,19.30
2017-10-17T01:39:05.431Z,17.90
2017-10-17T01:40:25.985Z,20.73
2017-10-17T01:41:29.243Z,15.35
2017-10-17T01:42:33.412Z,20.77
2017-10-17T01:43:36.952Z,18.50
2017-10-17T01:44:39.453Z,17.42
2017-10-17T01:45:42.839Z,18.02
2017-10-17T01:46:49.194Z,19.52
2017-10-17T01:48:08.773Z,23.92
2017-10-17T01:49:12.382Z,17.83
2017-10-17T01:50:17.502Z,20.20
2017-10-17T01:51:35.098Z,16.73
2017-10-17T01:52:38.827Z,23.33
2017-10-17T01:53:43.207Z,21.75
2017-10-17T01:55:00.242Z,17.87
2017-10-17T01:56:02.814Z,16.87
2017-10-17T01:57:05.793Z,24.15
2017-10-17T01:58:15.362Z,18.80
2017-10-17T01:59:22.080Z,18.17
2017-10-17T02:00:24.611Z,15.10
2017-10-17T02:01:28.202Z,22.35
2017-10-17T02:02:30.748Z,26.37
2017-10-17T02:03:34.002Z,22.83
2017-10-17T02:04:36.804Z,26.33
2017-10-17T02:05:40.072Z,24.00
2017-10-17T02:06:42.730Z,24.17
2017-10-17T02:07:45.345Z,21.42
2017-10-17T02:08:48.015Z,24.05
2017-10-17T02:09:50.741Z,23.90
2017-10-17T02:11:09.289Z,18.90
2017-10-17T02:12:11.779Z,19.67
2017-10-17T02:13:15.484Z,19.80
2017-10-17T02:14:18.052Z,19.75
2017-10-17T02:15:20.662Z,16.67
2017-10-17T02:16:23.164Z,30.77
2017-10-17T02:17:28.158Z,16.15
2017-10-17T02:18:33.725Z,20.67
2017-10-17T02:19:37.027Z,23.25
2017-10-17T02:20:39.549Z,20.20
2017-10-17T02:21:43.801Z,27.42
2017-10-17T02:22:46.416Z,19.42
2017-10-17T02:23:49.147Z,25.02
2017-10-17T02:24:52.525Z,31.98
2017-10-17T02:27:44.149Z,18.67
2017-10-17T02:30:36.419Z,21.75
2017-10-17T02:31:38.954Z,20.55
2017-10-17T02:32:41.445Z,23.25
2017-10-17T02:33:46.926Z,25.85
2017-10-17T02:34:49.467Z,21.83
2017-10-17T02:35:52.375Z,19.45
2017-10-17T02:36:55.652Z,20.80
2017-10-17T02:37:58.247Z,21.00
2017-10-17T02:39:00.778Z,24.58
2017-10-17T02:40:04.562Z,20.48
2017-10-17T02:41:07.190Z,19.30
2017-10-17T02:42:09.777Z,26.15
2017-10-17T02:43:13.100Z,22.00
2017-10-17T02:44:16.671Z,23.02
2017-10-17T02:45:19.201Z,22.33
2017-10-17T02:46:21.729Z,21.87
2017-10-17T02:47:25.143Z,21.92
2017-10-17T02:48:42.660Z,21.17
2017-10-17T02:49:56.594Z,23.87
2017-10-17T02:50:59.205Z,22.73
2017-10-17T02:52:01.879Z,22.42
2017-10-17T02:53:05.931Z,24.35
2017-10-17T02:54:08.763Z,20.80
2017-10-17T02:55:12.191Z,20.37
2017-10-17T02:56:14.893Z,25.77
2017-10-17T02:57:17.456Z,29.55
2017-10-17T02:58:21.223Z,20.98
2017-10-17T02:59:25.165Z,23.35
2017-10-17T03:00:27.716Z,25.00
2017-10-17T03:01:47.859Z,20.70
2017-10-17T03:02:52.279Z,21.35
2017-10-17T03:03:57.764Z,30.90
2017-10-17T03:05:11.545Z,33.05
2017-10-17T03:06:14.107Z,28.73
2017-10-17T03:07:16.623Z,24.35
2017-10-17T03:08:19.178Z,20.08
2017-10-17T03:09:21.947Z,23.15
2017-10-17T03:10:24.462Z,24.25
2017-10-17T03:11:27.909Z,30.05
2017-10-17T03:12:30.405Z,30.42
2017-10-17T03:13:34.899Z,27.25
2017-10-17T03:16:09.562Z,25.80
2017-10-17T03:17:12.293Z,18.90
2017-10-17T03:18:14.948Z,25.83
2017-10-17T03:19:17.474Z,20.65
2017-10-17T03:20:23.844Z,22.95
2017-10-17T03:21:26.325Z,26.27
2017-10-17T03:22:29.067Z,21.12
2017-10-17T03:23:31.635Z,22.15
2017-10-17T03:24:36.075Z,20.50
2017-10-17T03:25:39.424Z,22.80
2017-10-17T03:26:42.148Z,22.27
2017-10-17T03:27:44.645Z,23.35
2017-10-17T03:28:49.082Z,29.90
2017-10-17T03:29:51.643Z,21.87
2017-10-17T03:30:55.440Z,21.08
2017-10-17T03:31:57.915Z,23.83
2017-10-17T03:34:31.130Z,25.95
2017-10-17T03:35:33.662Z,25.83
2017-10-17T03:36:36.976Z,20.95
2017-10-17T03:38:09.312Z,23.02
2017-10-17T03:39:12.104Z,25.77
2017-10-17T03:40:17.413Z,21.85
2017-10-17T03:41:35.962Z,25.98
2017-10-17T03:42:38.463Z,27.13
2017-10-17T03:43:46.107Z,24.33
2017-10-17T03:44:53.488Z,24.23
2017-10-17T03:45:56.282Z,20.48
2017-10-17T03:46:58.789Z,21.35
2017-10-17T03:48:13.114Z,23.75
2017-10-17T03:51:04.124Z,25.37
2017-10-17T03:52:10.143Z,26.08
2017-10-17T03:53:19.704Z,29.00
2017-10-17T03:54:26.090Z,28.95
2017-10-17T03:55:29.910Z,28.08
2017-10-17T03:56:32.601Z,29.50
2017-10-17T03:57:36.987Z,26.25
2017-10-17T03:58:40.499Z,27.25
2017-10-17T03:59:56.639Z,25.37
2017-10-17T04:00:59.904Z,25.65
2017-10-17T04:02:02.450Z,25.12
2017-10-17T04:03:05.779Z,25.55
2017-10-17T04:04:16.972Z,23.17
2017-10-17T04:05:20.349Z,27.83
2017-10-17T04:06:24.706Z,27.00
2017-10-17T04:09:05.330Z,27.70
2017-10-17T04:10:25.919Z,24.85
2017-10-17T04:11:35.753Z,28.50
2017-10-17T04:12:38.239Z,23.38
2017-10-17T04:15:24.935Z,28.15
2017-10-17T04:18:17.588Z,26.60
2017-10-17T04:20:58.516Z,31.95
2017-10-17T04:22:05.458Z,31.42
2017-10-17T04:23:26.931Z,23.73
2017-10-17T04:24:31.575Z,24.77
2017-10-17T04:25:57.665Z,31.73
2017-10-17T04:27:08.118Z,35.40
2017-10-17T04:28:28.502Z,34.47
2017-10-17T04:31:28.733Z,26.15
2017-10-17T04:32:43.980Z,24.12
2017-10-17T04:34:07.961Z,23.25
2017-10-17T04:35:14.520Z,26.12
2017-10-17T04:36:28.140Z,27.10
2017-10-17T04:37:31.407Z,29.02
2017-10-17T04:38:34.967Z,34.28
2017-10-17T04:39:37.488Z,26.23
2017-10-17T04:40:40.672Z,33.55
2017-10-17T04:42:01.975Z,25.65
2017-10-17T04:43:17.564Z,29.23
2017-10-17T04:44:31.891Z,30.15
2017-10-17T04:45:46.249Z,28.45
2017-10-17T04:47:04.806Z,24.45
2017-10-17T04:49:53.337Z,24.98
2017-10-17T04:53:05.021Z,33.00
2017-10-17T04:54:25.278Z,25.62
2017-10-17T04:55:44.391Z,34.78
2017-10-17T04:57:00.660Z,33.45
2017-10-17T04:58:03.151Z,26.52
2017-10-17T04:59:17.869Z,33.72
2017-10-17T05:00:20.437Z,32.53
2017-10-17T05:01:23.329Z,33.38
2017-10-17T05:02:31.268Z,36.95
2017-10-17T05:03:36.037Z,23.35
2017-10-17T05:04:41.118Z,28.08
2017-10-17T05:07:30.941Z,21.35
2017-10-17T05:08:46.622Z,29.60
2017-10-17T05:09:49.129Z,28.70
2017-10-17T05:12:32.525Z,25.75
2017-10-17T05:13:52.805Z,30.37
2017-10-17T05:14:55.603Z,32.40
2017-10-17T05:16:12.076Z,23.98
2017-10-17T05:17:34.527Z,27.77
2017-10-17T05:18:42.046Z,26.12
2017-10-17T05:21:14.483Z,31.25
2017-10-17T05:22:22.363Z,27.87
2017-10-17T05:23:29.769Z,27.83
2017-10-17T05:24:47.935Z,23.48
2017-10-17T05:25:50.668Z,23.83
2017-10-17T05:26:53.179Z,24.00
2017-10-17T05:28:01.493Z,25.45
2017-10-17T05:29:06.625Z,30.95
2017-10-17T05:30:14.935Z,35.38
2017-10-17T05:31:20.097Z,30.20
2017-10-17T05:32:22.619Z,24.27
2017-10-17T05:33:33.701Z,28.70
2017-10-17T05:34:36.975Z,24.60
2017-10-17T05:35:39.485Z,26.30
2017-10-17T05:36:44.813Z,26.62
2017-10-17T05:37:47.336Z,32.17
2017-10-17T05:38:50.616Z,28.80
2017-10-17T05:39:56.622Z,32.13
2017-10-17T05:40:59.131Z,28.67
2017-10-17T05:42:01.761Z,28.85
2017-10-17T05:43:04.245Z,32.72
2017-10-17T05:45:39.239Z,30.85
2017-10-17T05:46:51.845Z,30.05
2017-10-17T05:47:58.970Z,33.65
2017-10-17T05:49:09.209Z,32.70
2017-10-17T05:51:57.601Z,30.67
2017-10-17T05:53:01.714Z,30.70
2017-10-17T05:54:04.258Z,35.50
2017-10-17T05:55:07.516Z,30.10
2017-10-17T05:56:10.020Z,33.20
2017-10-17T05:57:13.302Z,30.80
2017-10-17T05:58:16.716Z,36.38
2017-10-17T05:59:19.227Z,38.90
2017-10-17T06:00:21.748Z,31.60
2017-10-17T06:01:24.613Z,35.97
2017-10-17T06:02:27.231Z,35.75
2017-10-17T06:03:29.877Z,33.00
2017-10-17T06:04:32.409Z,34.90
2017-10-17T06:05:34.929Z,42.15
2017-10-17T06:06:37.430Z,29.73
2017-10-17T06:07:40.696Z,36.67
2017-10-17T06:08:43.217Z,29.67
2017-10-17T06:09:46.733Z,29.55
2017-10-17T06:10:49.349Z,34.40
2017-10-17T06:11:51.883Z,42.17
2017-10-17T06:12:54.378Z,35.08
2017-10-17T06:13:56.903Z,34.42
2017-10-17T06:14:59.386Z,35.33
2017-10-17T06:16:02.697Z,30.33
2017-10-17T06:17:05.895Z,39.50
2017-10-17T06:18:08.404Z,41.00
2017-10-17T06:19:11.115Z,38.53
2017-10-17T06:20:13.681Z,33.70
2017-10-17T06:21:16.180Z,28.87
2017-10-17T06:22:18.818Z,32.75
2017-10-17T06:23:22.305Z,31.80
2017-10-17T06:24:27.043Z,38.00
2017-10-17T06:25:29.708Z,35.08
2017-10-17T06:26:32.372Z,47.88
2017-10-17T06:27:35.062Z,35.72
2017-10-17T06:28:39.126Z,33.92
2017-10-17T06:29:42.509Z,29.10
2017-10-17T06:30:45.118Z,27.35
2017-10-17T06:31:47.637Z,27.83
2017-10-17T06:32:50.228Z,31.87
2017-10-17T06:33:53.651Z,32.72
2017-10-17T06:34:56.316Z,45.25
2017-10-17T06:35:58.842Z,31.48
2017-10-17T06:37:01.391Z,52.60
2017-10-17T06:38:04.022Z,28.75
2017-10-17T06:39:07.485Z,32.72
2017-10-17T06:40:10.819Z,37.17
2017-10-17T06:41:13.458Z,33.95
2017-10-17T06:42:15.964Z,29.55
2017-10-17T06:43:18.465Z,33.03
2017-10-17T06:44:21.730Z,44.88
2017-10-17T06:45:24.298Z,35.20
2017-10-17T06:46:26.823Z,30.20
2017-10-17T06:47:29.890Z,32.80
2017-10-17T06:48:32.420Z,33.03
2017-10-17T06:49:34.909Z,31.70
2017-10-17T06:50:37.555Z,51.83
2017-10-17T06:51:40.778Z,35.58
2017-10-17T06:52:43.280Z,31.27
2017-10-17T06:53:46.532Z,35.92
2017-10-17T06:54:50.833Z,34.20
2017-10-17T06:55:54.112Z,30.62
2017-10-17T06:56:58.017Z,37.15
2017-10-17T06:58:01.235Z,36.78
2017-10-17T06:59:04.349Z,38.95
2017-10-17T07:00:07.942Z,40.28
2017-10-17T07:01:11.681Z,33.42
2017-10-17T07:02:23.170Z,34.40
2017-10-17T07:03:27.011Z,35.53
2017-10-17T07:04:29.554Z,35.42
2017-10-17T07:05:32.051Z,29.30
2017-10-17T07:06:34.537Z,38.63
2017-10-17T07:07:37.228Z,37.05
2017-10-17T07:08:39.777Z,34.15
2017-10-17T07:09:42.329Z,29.20
2017-10-17T07:10:44.882Z,33.20
2017-10-17T07:11:47.462Z,27.62
2017-10-17T07:12:50.034Z,33.10
2017-10-17T07:13:52.544Z,26.92
2017-10-17T07:14:55.021Z,29.80
2017-10-17T07:15:57.521Z,32.53
2017-10-17T07:17:00.062Z,30.52
2017-10-17T07:18:02.581Z,23.30
2017-10-17T07:19:06.145Z,36.25
2017-10-17T07:20:08.634Z,29.48
2017-10-17T07:21:11.138Z,34.17
2017-10-17T07:22:13.711Z,35.88
2017-10-17T07:23:16.452Z,28.87
2017-10-17T07:24:18.966Z,20.77
2017-10-17T07:25:22.332Z,30.60
2017-10-17T07:26:25.737Z,34.10
2017-10-17T07:27:29.426Z,30.52
2017-10-17T07:28:32.137Z,33.00
2017-10-17T07:29:34.797Z,27.75
2017-10-17T07:30:37.802Z,22.90
2017-10-17T07:31:40.739Z,36.67
2017-10-17T07:32:43.315Z,28.00
2017-10-17T07:33:46.002Z,23.33
2017-10-17T07:34:48.658Z,23.65
2017-10-17T07:35:51.189Z,28.08
2017-10-17T07:36:53.706Z,31.48
2017-10-17T07:37:56.473Z,26.25
2017-10-17T07:38:59.782Z,26.35
2017-10-17T07:40:02.350Z,25.52
2017-10-17T07:41:04.905Z,24.30
2017-10-17T07:42:08.637Z,31.35
2017-10-17T07:43:11.165Z,32.72
2017-10-17T07:44:13.733Z,26.52
2017-10-17T07:45:16.597Z,26.90
2017-10-17T07:46:19.374Z,33.22
2017-10-17T07:47:21.989Z,30.85
2017-10-17T07:48:24.492Z,27.08
2017-10-17T07:49:27.175Z,40.50
2017-10-17T07:50:29.741Z,31.80
2017-10-17T07:51:32.243Z,24.00
2017-10-17T07:52:36.822Z,30.37
2017-10-17T07:53:39.385Z,29.30
2017-10-17T07:54:41.929Z,24.67
2017-10-17T07:55:45.240Z,25.62
2017-10-17T07:56:47.930Z,29.90
2017-10-17T07:57:50.435Z,26.20
2017-10-17T07:58:53.907Z,31.42
2017-10-17T07:59:56.406Z,49.50
2017-10-17T08:00:59.733Z,21.75
2017-10-17T08:02:02.345Z,28.95
2017-10-17T08:03:04.853Z,30.45
2017-10-17T08:04:07.425Z,39.67
2017-10-17T08:05:10.166Z,28.65
2017-10-17T08:06:13.450Z,28.50
2017-10-17T08:07:17.031Z,35.33
2017-10-17T08:08:19.561Z,31.10
2017-10-17T08:09:22.050Z,25.55
2017-10-17T08:10:24.546Z,29.40
2017-10-17T08:11:27.950Z,28.33
2017-10-17T08:12:30.493Z,28.80
2017-10-17T08:13:33.039Z,28.15
2017-10-17T08:14:36.852Z,24.98
2017-10-17T08:15:40.120Z,27.02
2017-10-17T08:16:43.405Z,23.08
2017-10-17T08:17:45.922Z,33.30
2017-10-17T08:18:48.483Z,25.95
2017-10-17T08:19:50.985Z,35.55
2017-10-17T08:20:53.508Z,31.50
2017-10-17T08:21:56.921Z,29.92
2017-10-17T08:22:59.574Z,22.62
2017-10-17T08:24:02.241Z,32.80
2017-10-17T08:25:04.799Z,24.63
2017-10-17T08:26:07.365Z,22.05
2017-10-17T08:27:09.933Z,23.45
2017-10-17T08:28:12.472Z,32.95
2017-10-17T08:29:15.756Z,32.00
2017-10-17T08:30:19.022Z,28.17
2017-10-17T08:31:21.495Z,27.62
2017-10-17T08:32:25.181Z,29.15
2017-10-17T08:33:27.790Z,27.20
2017-10-17T08:34:30.431Z,23.35
2017-10-17T08:35:33.692Z,29.42
2017-10-17T08:36:36.206Z,27.98
2017-10-17T08:37:38.773Z,25.52
2017-10-17T08:38:41.353Z,26.35
2017-10-17T08:39:43.859Z,28.77
2017-10-17T08:40:46.478Z,25.70
2017-10-17T08:41:49.861Z,18.95
2017-10-17T08:42:52.400Z,27.10
2017-10-17T08:43:55.144Z,22.55
2017-10-17T08:44:58.982Z,25.50
2017-10-17T08:46:02.329Z,25.42
2017-10-17T08:47:05.208Z,28.45
2017-10-17T08:48:07.932Z,27.17
2017-10-17T08:49:12.816Z,23.42
2017-10-17T08:50:15.440Z,26.02
2017-10-17T08:51:18.510Z,22.70
2017-10-17T08:52:21.200Z,17.87
2017-10-17T08:53:29.972Z,34.15
2017-10-17T08:55:38.714Z,27.20
2017-10-17T08:56:41.490Z,19.90
2017-10-17T08:57:44.732Z,27.13
2017-10-17T08:58:47.243Z,22.05
2017-10-17T09:00:13.461Z,33.40
2017-10-17T09:01:16.130Z,23.25
2017-10-17T09:02:18.624Z,19.42
2017-10-17T09:03:21.117Z,27.20
2017-10-17T09:04:23.669Z,19.52
2017-10-17T09:05:28.130Z,27.15
2017-10-17T09:06:30.682Z,29.63
2017-10-17T09:07:33.970Z,39.88
2017-10-17T09:08:37.245Z,27.30
2017-10-17T09:09:40.554Z,38.30
2017-10-17T09:10:43.481Z,24.92
2017-10-17T09:11:46.006Z,31.67
2017-10-17T09:12:48.497Z,30.62
2017-10-17T09:13:51.102Z,22.33
2017-10-17T09:14:53.600Z,24.20
2017-10-17T09:15:56.093Z,26.77
2017-10-17T09:16:58.683Z,29.05
2017-10-17T09:18:01.194Z,22.90
2017-10-17T09:19:03.863Z,34.72
2017-10-17T09:20:06.429Z,32.67
2017-10-17T09:21:08.996Z,21.10
2017-10-17T09:22:11.544Z,29.42
2017-10-17T09:23:14.954Z,28.25
2017-10-17T09:24:18.188Z,25.92
2017-10-17T09:25:20.799Z,24.60
2017-10-17T09:26:23.348Z,34.42
2017-10-17T09:27:26.608Z,39.38
2017-10-17T09:28:29.942Z,27.10
2017-10-17T09:29:32.503Z,38.00
2017-10-17T09:30:34.977Z,29.95
2017-10-17T09:31:39.332Z,30.15
2017-10-17T09:32:41.870Z,31.20
2017-10-17T09:33:44.400Z,30.20
2017-10-17T09:34:46.981Z,30.67
2017-10-17T09:35:49.618Z,19.17
2017-10-17T09:36:53.031Z,18.25
2017-10-17T09:37:55.571Z,27.33
2017-10-17T09:39:00.188Z,33.25
2017-10-17T09:40:03.443Z,30.85
2017-10-17T09:41:05.978Z,38.13
2017-10-17T09:42:08.481Z,27.37
2017-10-17T09:43:11.952Z,23.38
2017-10-17T09:44:14.479Z,26.37
2017-10-17T09:45:17.046Z,24.63
2017-10-17T09:46:19.557Z,32.70
2017-10-17T09:47:22.995Z,27.50
2017-10-17T09:48:25.568Z,26.27
2017-10-17T09:49:28.080Z,30.10
2017-10-17T09:50:30.625Z,32.38
2017-10-17T09:51:34.132Z,34.85
2017-10-17T09:52:36.766Z,29.30
2017-10-17T09:53:39.277Z,32.50
2017-10-17T09:54:43.360Z,40.75
2017-10-17T09:55:46.099Z,28.58
2017-10-17T09:56:48.672Z,25.20
2017-10-17T09:57:51.172Z,33.97
2017-10-17T09:58:53.671Z,29.15
2017-10-17T09:59:56.979Z,31.70
2017-10-17T10:01:01.511Z,25.48
2017-10-17T10:02:04.059Z,28.17
2017-10-17T10:03:06.665Z,29.52
2017-10-17T10:04:10.355Z,28.87
2017-10-17T10:05:12.890Z,35.08
2017-10-17T10:06:15.460Z,26.60
2017-10-17T10:07:18.401Z,23.85
2017-10-17T10:08:22.720Z,41.03
2017-10-17T10:09:26.007Z,29.35
2017-10-17T10:10:30.524Z,29.40
2017-10-17T10:11:33.109Z,38.13
2017-10-17T10:12:35.649Z,27.75
2017-10-17T10:13:38.958Z,26.85
2017-10-17T10:14:42.594Z,40.28
2017-10-17T10:15:45.140Z,34.20
2017-10-17T10:16:48.082Z,38.08
2017-10-17T10:17:50.748Z,31.90
2017-10-17T10:18:53.679Z,31.70
2017-10-17T10:19:56.243Z,35.22
2017-10-17T10:20:58.977Z,28.12
2017-10-17T10:22:01.744Z,42.88
2017-10-17T10:23:04.605Z,32.35
2017-10-17T10:24:07.144Z,30.17
2017-10-17T10:25:10.095Z,27.67
2017-10-17T10:26:12.831Z,38.20
2017-10-17T10:27:15.569Z,29.50
2017-10-17T10:28:18.836Z,40.58
2017-10-17T10:29:21.516Z,26.33
2017-10-17T10:30:24.014Z,35.92
2017-10-17T10:31:26.832Z,32.17
2017-10-17T10:32:29.380Z,32.95
2017-10-17T10:33:33.303Z,32.72
2017-10-17T10:34:35.796Z,34.25
2017-10-17T10:35:39.691Z,39.80
2017-10-17T10:36:42.976Z,39.17
2017-10-17T10:37:46.623Z,33.97
2017-10-17T10:38:50.313Z,51.45
2017-10-17T10:39:53.148Z,42.35
2017-10-17T10:40:55.679Z,39.65
2017-10-17T10:41:58.457Z,37.78
2017-10-17T10:43:01.114Z,33.72
2017-10-17T10:44:03.850Z,31.77
2017-10-17T10:45:06.370Z,30.50
2017-10-17T10:46:09.853Z,36.60
2017-10-17T10:47:13.238Z,26.25
2017-10-17T10:48:16.063Z,35.90
2017-10-17T10:49:18.629Z,21.52
2017-10-17T10:50:21.380Z,28.52
2017-10-17T10:51:25.157Z,30.75
2017-10-17T10:52:28.828Z,24.92
2017-10-17T10:53:32.836Z,34.42
2017-10-17T10:54:36.712Z,28.10
2017-10-17T10:55:39.250Z,33.10
2017-10-17T10:56:41.747Z,43.70
2017-10-17T10:57:44.331Z,31.45
2017-10-17T10:58:46.848Z,29.17
2017-10-17T10:59:49.681Z,30.25
2017-10-17T11:00:52.207Z,36.03
2017-10-17T11:01:55.069Z,32.67
2017-10-17T11:02:57.672Z,44.78
2017-10-17T11:04:00.509Z,40.70
2017-10-17T11:05:12.533Z,29.35
2017-10-17T11:06:15.987Z,34.85
2017-10-17T11:07:18.544Z,31.12
2017-10-17T11:08:21.117Z,44.22
2017-10-17T11:09:23.636Z,38.60
2017-10-17T11:10:26.246Z,29.95
2017-10-17T11:11:30.041Z,37.30
2017-10-17T11:12:32.612Z,27.50
2017-10-17T11:13:35.286Z,39.28
2017-10-17T11:14:37.810Z,44.00
2017-10-17T11:15:41.136Z,30.12
2017-10-17T11:16:43.802Z,21.33
2017-10-17T11:17:46.464Z,32.53
2017-10-17T11:18:49.034Z,27.92
2017-10-17T11:19:51.536Z,33.65
2017-10-17T11:20:54.051Z,37.53
2017-10-17T11:21:56.637Z,25.85
2017-10-17T11:22:59.184Z,38.33
2017-10-17T11:24:01.733Z,38.97
2017-10-17T11:25:05.050Z,40.55
2017-10-17T11:26:07.630Z,36.45
2017-10-17T11:27:10.360Z,36.58
2017-10-17T11:28:13.894Z,39.63
2017-10-17T11:29:16.393Z,39.40
2017-10-17T11:30:18.919Z,37.58
2017-10-17T11:31:21.535Z,36.80
2017-10-17T11:32:24.071Z,33.33
2017-10-17T11:33:26.610Z,33.85
2017-10-17T11:34:29.099Z,37.30
2017-10-17T11:35:31.730Z,43.72
2017-10-17T11:36:35.242Z,49.17
2017-10-17T11:37:38.209Z,35.35
2017-10-17T11:38:45.472Z,35.40
2017-10-17T11:39:48.053Z,46.40
2017-10-17T11:41:02.474Z,55.78
2017-10-17T11:42:18.684Z,50.17
2017-10-17T11:43:33.232Z,41.30
2017-10-17T11:44:35.796Z,45.12
2017-10-17T11:45:38.324Z,39.47
2017-10-17T11:46:40.938Z,48.13
2017-10-17T11:47:43.526Z,36.13
2017-10-17T11:48:46.021Z,38.28
2017-10-17T11:49:49.466Z,39.97
2017-10-17T11:50:52.406Z,41.33
2017-10-17T11:51:55.684Z,44.50
2017-10-17T11:52:59.883Z,36.72
2017-10-17T11:54:03.264Z,44.65
2017-10-17T11:55:06.590Z,34.17
2017-10-17T11:56:09.302Z,44.53
2017-10-17T11:57:12.141Z,36.67
2017-10-17T11:58:15.835Z,52.13
2017-10-17T11:59:18.352Z,36.10
2017-10-17T12:00:20.892Z,42.30
2017-10-17T12:01:23.536Z,50.47
2017-10-17T12:02:26.102Z,42.60
2017-10-17T12:03:28.635Z,43.55
2017-10-17T12:04:33.187Z,52.50
2017-10-17T12:05:35.714Z,32.17
2017-10-17T12:06:38.215Z,45.75
2017-10-17T12:07:40.856Z,43.17
2017-10-17T12:08:45.270Z,38.95
2017-10-17T12:09:48.538Z,38.20
2017-10-17T12:10:52.898Z,38.03
2017-10-17T12:11:55.403Z,38.72
2017-10-17T12:12:57.986Z,43.10
2017-10-17T12:14:00.489Z,41.60
2017-10-17T12:15:04.080Z,44.58
2017-10-17T12:16:06.652Z,40.90
2017-10-17T12:17:09.314Z,45.33
2017-10-17T12:18:11.845Z,32.92
2017-10-17T12:19:16.058Z,38.17
2017-10-17T12:20:19.324Z,56.50
2017-10-17T12:21:22.960Z,41.03
2017-10-17T12:22:25.440Z,41.13
2017-10-17T12:23:27.952Z,48.00
2017-10-17T12:59:09.734Z,32.97
2017-10-17T13:00:12.555Z,36.78
2017-10-17T13:01:15.966Z,36.88
2017-10-17T13:02:18.535Z,33.85
2017-10-17T13:03:21.215Z,33.22
2017-10-17T13:04:23.807Z,32.00
2017-10-17T13:05:26.328Z,34.97
2017-10-17T13:06:29.611Z,38.60
2017-10-17T13:07:32.406Z,38.30
2017-10-17T13:08:34.968Z,35.72
2017-10-17T13:09:37.491Z,36.50
2017-10-17T13:10:40.027Z,33.28
2017-10-17T13:11:42.631Z,34.38
2017-10-17T13:12:46.594Z,41.45
2017-10-17T13:13:49.462Z,42.62
2017-10-17T13:14:51.960Z,31.67
2017-10-17T13:15:55.597Z,24.48
2017-10-17T13:17:00.515Z,39.88
2017-10-17T13:18:05.676Z,30.98
2017-10-17T13:19:08.212Z,41.53
2017-10-17T13:20:10.786Z,26.25
2017-10-17T13:21:13.356Z,39.92
2017-10-17T13:22:16.939Z,32.33
2017-10-17T13:23:19.476Z,28.65
2017-10-17T13:24:26.227Z,38.00
2017-10-17T13:25:28.749Z,33.03
2017-10-17T13:26:31.300Z,37.75
2017-10-17T13:27:33.880Z,42.58
2017-10-17T13:28:37.600Z,42.67
2017-10-17T13:29:40.250Z,27.35
2017-10-17T13:30:43.157Z,43.05
2017-10-17T13:31:45.700Z,47.58
2017-10-17T13:32:48.249Z,30.75
2017-10-17T13:33:50.935Z,44.58
2017-10-17T13:34:53.503Z,33.35
2017-10-17T13:35:56.080Z,40.45
2017-10-17T13:36:58.653Z,33.70
2017-10-17T13:38:01.836Z,37.08
2017-10-17T13:39:05.337Z,41.35
2017-10-17T13:40:07.837Z,44.25
2017-10-17T13:41:11.598Z,36.42
2017-10-17T13:42:14.173Z,35.72
2017-10-17T13:43:16.711Z,40.78
2017-10-17T13:44:20.019Z,44.33
2017-10-17T13:45:26.345Z,57.28
2017-10-17T13:46:29.662Z,44.72
2017-10-17T13:47:32.169Z,37.25
2017-10-17T13:48:35.150Z,39.40
2017-10-17T13:49:37.719Z,46.35
2017-10-17T13:50:40.337Z,54.95
2017-10-17T13:51:42.878Z,43.33
2017-10-17T13:52:46.189Z,40.42
2017-10-17T13:53:48.688Z,48.87
2017-10-17T13:54:51.180Z,38.55
2017-10-17T13:55:54.689Z,53.25
2017-10-17T13:56:57.994Z,37.22
2017-10-17T13:58:00.482Z,42.95
2017-10-17T13:59:02.990Z,48.97
2017-10-17T14:00:05.501Z,44.10
2017-10-17T14:01:08.019Z,37.42
2017-10-17T14:02:10.545Z,45.70
2017-10-17T14:03:13.166Z,47.30
2017-10-17T14:04:16.479Z,51.70
2017-10-17T14:05:19.326Z,35.65
2017-10-17T14:06:22.649Z,40.45
2017-10-17T14:07:25.258Z,39.08
2017-10-17T14:08:28.759Z,53.25
2017-10-17T14:09:31.259Z,46.42
2017-10-17T14:10:33.832Z,41.47
2017-10-17T14:11:36.362Z,45.15
2017-10-17T14:12:38.872Z,45.42
2017-10-17T14:13:41.536Z,47.13
2017-10-17T14:14:44.051Z,42.90
2017-10-17T14:15:47.498Z,55.67
2017-10-17T14:16:50.027Z,48.50
2017-10-17T14:17:53.330Z,37.17
2017-10-17T14:18:55.842Z,42.22
2017-10-17T14:19:58.477Z,40.10
2017-10-17T14:21:02.684Z,37.20
2017-10-17T14:22:06.025Z,38.47
2017-10-17T14:23:08.944Z,49.13
2017-10-17T14:24:11.708Z,43.80
2017-10-17T14:25:14.461Z,44.15
2017-10-17T14:26:17.990Z,44.47
2017-10-17T14:27:21.563Z,43.70
2017-10-17T14:28:25.717Z,54.65
2017-10-17T14:29:28.648Z,41.58
2017-10-17T14:30:31.210Z,54.63
2017-10-17T14:31:35.025Z,50.28
2017-10-17T14:32:38.947Z,53.22
2017-10-17T14:33:47.127Z,38.75
2017-10-17T14:34:50.646Z,35.00
2017-10-17T14:35:53.350Z,45.50
2017-10-17T14:36:55.919Z,46.33
2017-10-17T14:37:59.278Z,47.95
2017-10-17T14:39:02.542Z,50.17
2017-10-17T14:40:05.092Z,45.78
2017-10-17T14:41:08.425Z,42.92
2017-10-17T14:42:11.849Z,50.15
2017-10-17T14:43:14.870Z,48.45
2017-10-17T14:44:19.125Z,44.70
2017-10-17T14:45:21.697Z,44.17
2017-10-17T14:46:24.385Z,43.25
2017-10-17T14:47:26.903Z,41.80
2017-10-17T14:48:29.411Z,48.80
2017-10-17T14:49:31.939Z,53.53
2017-10-17T14:50:34.490Z,39.42
2017-10-17T14:51:37.022Z,47.47